Time;durP1;ratioP1;P1;durP2;ratioP2;P2;SDS_P1;SDS_P2;PMS_P1;PMS_P2;Temp;Humidity;BMP_temperature;BMP_pressure;BME280_temperature;BME280_humidity;BME280_pressure;Samples;Min_cycle;Max_cycle;Signal;HPM_P1;HPM_P2
2023/02/07 00:02:32;;;;;;;14.20;10.03;;;;;;;1.28;54.97;99992.25;8410063;28;20224;-66
2023/02/07 00:06:36;;;;;;;12.43;9.53;;;;;;;1.16;54.53;99980.00;8410822;28;20243;-65
2023/02/07 00:10:40;;;;;;;12.30;9.77;;;;;;;0.53;56.61;99993.63;8410547;28;20239;-66
2023/02/07 00:14:43;;;;;;;12.30;9.57;;;;;;;0.74;56.01;99985.69;8410200;28;20495;-65
2023/02/07 00:18:47;;;;;;;15.23;9.60;;;;;;;0.92;56.13;99988.75;8410460;28;20232;-65
2023/02/07 00:22:50;;;;;;;14.07;10.13;;;;;;;0.38;57.27;99977.09;8410433;28;20236;-65
2023/02/07 00:26:54;;;;;;;14.67;10.13;;;;;;;0.35;57.50;99976.97;8410130;28;20547;-65
2023/02/07 00:31:03;;;;;;;13.47;10.07;;;;;;;0.90;55.99;99982.75;8410058;28;20236;-65
2023/02/07 00:35:07;;;;;;;13.40;9.90;;;;;;;0.84;54.92;99990.25;8409955;28;20225;-65
2023/02/07 00:39:12;;;;;;;13.03;10.23;;;;;;;1.24;54.43;99985.31;8409737;28;20224;-66
2023/02/07 00:43:17;;;;;;;13.37;9.70;;;;;;;1.85;53.03;99991.06;8409680;28;20228;-65
2023/02/07 00:47:31;;;;;;;12.90;9.80;;;;;;;2.12;51.88;100008.72;8409747;28;20235;-65
2023/02/07 00:51:34;;;;;;;13.80;9.40;;;;;;;2.38;51.35;100013.53;8409608;28;20412;-66
2023/02/07 00:55:37;;;;;;;13.93;10.93;;;;;;;2.08;51.23;100012.88;8415422;28;20527;-65
2023/02/07 00:59:42;;;;;;;12.53;10.50;;;;;;;2.46;50.56;99999.22;8416143;28;20236;-65
2023/02/07 01:03:44;;;;;;;14.53;10.70;;;;;;;2.05;51.01;100017.06;8415839;28;20228;-65
2023/02/07 01:07:47;;;;;;;11.90;9.70;;;;;;;2.12;51.03;100021.50;8416112;28;20527;-65
2023/02/07 01:11:50;;;;;;;12.70;10.13;;;;;;;2.31;50.66;100018.50;8415826;28;20250;-65
2023/02/07 01:15:54;;;;;;;13.47;10.70;;;;;;;2.05;51.07;100025.59;8416239;28;20230;-65
2023/02/07 01:19:57;;;;;;;12.30;10.93;;;;;;;2.42;50.96;100007.63;8415944;28;20240;-65
2023/02/07 01:24:00;;;;;;;13.37;10.20;;;;;;;2.50;50.40;100004.41;8415800;28;20240;-65
2023/02/07 01:28:04;;;;;;;15.63;10.50;;;;;;;2.33;50.87;99995.53;8415939;28;20228;-65
2023/02/07 01:32:09;;;;;;;12.77;10.43;;;;;;;2.43;50.29;100000.00;8415508;28;20506;-65
2023/02/07 01:36:14;;;;;;;14.80;11.13;;;;;;;1.91;50.47;100006.53;8415306;28;20251;-66
2023/02/07 01:40:16;;;;;;;14.63;11.60;;;;;;;1.66;51.07;100012.75;8415335;28;20231;-65
2023/02/07 01:45:01;;;;;;;12.73;10.83;;;;;;;1.87;51.53;100020.06;8415088;28;20228;-65
2023/02/07 01:49:09;;;;;;;15.97;11.83;;;;;;;2.08;50.95;100007.78;8415046;28;20232;-65
2023/02/07 01:53:14;;;;;;;14.10;10.53;;;;;;;2.04;50.23;100005.13;8415507;28;20228;-65
2023/02/07 01:57:19;;;;;;;14.60;10.93;;;;;;;2.31;49.93;99987.81;8415244;28;20228;-65
2023/02/07 02:01:24;;;;;;;13.50;11.17;;;;;;;1.28;51.32;99913.97;8415131;28;20421;-65
2023/02/07 02:05:29;;;;;;;15.93;11.17;;;;;;;2.41;49.45;99975.25;8413612;28;20231;-65
2023/02/07 02:09:32;;;;;;;16.77;12.27;;;;;;;2.06;50.64;99980.47;8414455;28;20220;-65
2023/02/07 02:13:41;;;;;;;16.23;12.00;;;;;;;2.02;50.20;99978.66;8414433;28;20235;-65
2023/02/07 02:17:55;;;;;;;13.53;11.17;;;;;;;2.04;50.18;99977.03;8413953;28;20263;-65
2023/02/07 02:22:19;;;;;;;14.83;11.97;;;;;;;1.80;50.26;99998.63;8413994;28;20255;-65
2023/02/07 02:26:50;;;;;;;14.80;12.07;;;;;;;2.31;49.56;99994.63;8413898;28;20421;-65
2023/02/07 02:31:22;;;;;;;15.90;12.33;;;;;;;1.68;50.27;100016.22;8400103;28;20284;-65
2023/02/07 02:35:31;;;;;;;16.50;11.50;;;;;;;1.23;50.90;100012.53;8404922;28;20231;-65
2023/02/07 02:39:39;;;;;;;15.30;11.80;;;;;;;1.29;51.25;99997.38;8413333;28;20224;-66
2023/02/07 02:43:45;;;;;;;16.33;12.27;;;;;;;1.34;51.07;99987.28;8412788;28;20228;-65
2023/02/07 02:47:50;;;;;;;14.50;11.33;;;;;;;2.01;49.23;99977.78;8413210;28;20268;-65
2023/02/07 02:51:54;;;;;;;16.73;12.70;;;;;;;2.09;49.57;99980.53;8412956;28;20228;-66
2023/02/07 02:56:14;;;;;;;16.77;12.27;;;;;;;2.14;48.96;99991.72;8412721;28;20249;-65
2023/02/07 03:00:26;;;;;;;15.53;12.33;;;;;;;2.23;48.96;99968.91;8412902;28;20425;-65
2023/02/07 03:04:44;;;;;;;15.97;12.73;;;;;;;2.18;48.80;99959.41;8412848;28;20228;-65
2023/02/07 03:08:56;;;;;;;18.40;12.43;;;;;;;1.95;49.06;99922.31;8411705;28;20239;-66
2023/02/07 03:13:08;;;;;;;17.27;11.77;;;;;;;2.11;49.28;99966.97;8412105;28;20242;-65
2023/02/07 03:17:15;;;;;;;14.63;12.17;;;;;;;2.19;49.33;99959.47;8411924;28;20225;-66
2023/02/07 03:21:22;;;;;;;17.00;12.40;;;;;;;2.04;49.17;99951.47;8411825;28;20295;-65
2023/02/07 03:25:27;;;;;;;16.97;13.00;;;;;;;2.19;48.55;99944.13;8411573;28;20228;-65
2023/02/07 03:29:31;;;;;;;18.33;13.07;;;;;;;2.17;49.08;99955.13;8411472;28;20239;-65
2023/02/07 03:33:34;;;;;;;14.77;12.10;;;;;;;2.02;48.64;99927.53;8411345;28;20236;-65
2023/02/07 03:37:39;;;;;;;15.60;11.33;;;;;;;2.18;49.05;99965.38;8411344;28;20238;-65
2023/02/07 03:41:49;;;;;;;16.20;12.47;;;;;;;2.05;49.25;99960.84;8410553;28;20224;-65
2023/02/07 03:45:51;;;;;;;17.03;12.90;;;;;;;2.11;49.03;99966.06;8410999;28;20235;-65
2023/02/07 03:49:54;;;;;;;17.03;12.17;;;;;;;2.10;49.06;99977.16;8410706;28;20228;-65
2023/02/07 03:53:57;;;;;;;15.40;11.67;;;;;;;2.10;48.76;99965.22;8410601;28;20460;-65
2023/02/07 03:58:02;;;;;;;15.87;12.43;;;;;;;1.76;48.98;99986.59;8410413;28;20372;-65
2023/02/07 04:02:05;;;;;;;16.90;13.53;;;;;;;1.65;49.06;99988.88;8415830;28;20232;-66
2023/02/07 04:06:08;;;;;;;16.60;13.10;;;;;;;2.03;48.55;99985.50;8410663;28;20232;-65
2023/02/07 04:10:11;;;;;;;17.17;12.80;;;;;;;1.98;48.57;99987.09;8410256;28;20560;-65
2023/02/07 04:14:15;;;;;;;16.70;12.90;;;;;;;1.89;49.25;99985.19;8410623;28;20239;-66
2023/02/07 04:18:18;;;;;;;16.97;13.13;;;;;;;2.00;48.74;99976.09;8410323;28;20235;-65
2023/02/07 04:22:21;;;;;;;17.23;12.93;;;;;;;1.99;49.10;99979.44;8409922;28;20432;-65
2023/02/07 04:26:24;;;;;;;16.60;12.77;;;;;;;1.76;48.90;99948.28;8409667;28;20236;-66
2023/02/07 04:30:30;;;;;;;17.50;13.30;;;;;;;1.73;49.45;99972.06;8409343;28;20231;-66
2023/02/07 04:34:33;;;;;;;16.47;12.97;;;;;;;1.75;49.20;99972.97;8409933;28;20234;-66
2023/02/07 04:38:36;;;;;;;19.57;13.33;;;;;;;1.88;49.03;99974.09;8409744;28;20223;-65
2023/02/07 04:42:39;;;;;;;16.77;13.57;;;;;;;1.49;48.83;99959.56;8409783;28;20528;-65
2023/02/07 04:46:43;;;;;;;17.10;13.10;;;;;;;1.74;49.28;99962.72;8409338;28;20228;-65
2023/02/07 04:50:46;;;;;;;19.10;13.30;;;;;;;1.50;48.79;99968.09;8409897;28;20254;-66
2023/02/07 04:54:48;;;;;;;17.33;14.00;;;;;;;1.50;49.37;99961.28;8409713;28;20220;-65
2023/02/07 04:58:52;;;;;;;17.10;13.10;;;;;;;1.53;49.13;99968.19;8409378;28;20232;-65
2023/02/07 05:02:56;;;;;;;18.27;13.57;;;;;;;1.55;48.95;99980.16;8409599;28;20239;-65
2023/02/07 05:07:02;;;;;;;18.00;13.40;;;;;;;1.44;49.30;99967.94;8409310;28;20251;-65
2023/02/07 05:11:05;;;;;;;15.43;12.77;;;;;;;1.54;48.97;99988.66;8409298;28;20277;-66
2023/02/07 05:15:09;;;;;;;15.67;12.47;;;;;;;1.44;48.53;99984.13;8409297;28;20236;-65
2023/02/07 05:19:13;;;;;;;17.30;12.67;;;;;;;1.32;48.96;99989.78;8409201;28;20420;-66
2023/02/07 05:23:16;;;;;;;17.40;13.10;;;;;;;1.29;49.00;99984.59;8408450;28;20406;-66
2023/02/07 05:27:19;;;;;;;20.07;13.43;;;;;;;0.36;48.82;99853.81;8408746;28;20235;-65
2023/02/07 05:33:02;;;;;;;16.50;12.67;;;;;;;1.26;49.83;99968.38;8408857;28;20235;-65
2023/02/07 05:35:47;;;;;;;17.60;13.17;;;;;;;1.25;49.04;99962.38;8408418;28;20563;-65
2023/02/07 05:39:50;;;;;;;35.93;24.97;;;;;;;1.05;49.48;99977.19;8411763;28;20239;-65
2023/02/07 05:43:52;;;;;;;17.80;14.20;;;;;;;1.08;48.88;99987.47;8415792;28;20236;-65
2023/02/07 05:47:55;;;;;;;17.37;13.30;;;;;;;1.13;48.96;99982.50;8414330;28;20247;-65
2023/02/07 05:51:59;;;;;;;16.23;12.40;;;;;;;1.26;49.10;100002.41;8414297;28;20236;-66
2023/02/07 05:56:02;;;;;;;18.20;12.90;;;;;;;1.12;49.52;100014.81;8414066;28;20296;-66
2023/02/07 06:00:06;;;;;;;17.77;12.93;;;;;;;1.10;49.64;100011.34;8414246;28;20227;-66
2023/02/07 06:04:09;;;;;;;17.27;13.40;;;;;;;1.20;49.23;100016.69;8413852;28;20232;-65
2023/02/07 06:08:13;;;;;;;16.80;13.53;;;;;;;1.04;49.01;100006.06;8414095;28;20228;-66
2023/02/07 06:12:16;;;;;;;18.80;14.87;;;;;;;1.02;49.60;100020.50;8413928;28;20231;-65
2023/02/07 06:16:18;;;;;;;19.33;14.93;;;;;;;0.43;48.77;99904.97;8413437;28;20235;-66
2023/02/07 06:20:22;;;;;;;19.17;15.03;;;;;;;1.10;48.67;100028.34;8413413;28;20228;-66
2023/02/07 06:24:26;;;;;;;18.97;14.93;;;;;;;0.84;49.49;100037.84;8413790;28;20224;-66
2023/02/07 06:28:29;;;;;;;18.43;14.83;;;;;;;1.00;49.79;100057.84;8413694;28;20243;-66
2023/02/07 06:32:32;;;;;;;21.07;14.40;;;;;;;0.97;49.45;100066.31;8412832;28;20220;-66
2023/02/07 06:36:36;;;;;;;17.03;14.03;;;;;;;1.18;48.88;100075.34;8412548;28;20290;-65
2023/02/07 06:40:40;;;;;;;19.43;15.13;;;;;;;1.19;48.94;100076.22;8412304;28;20552;-65
2023/02/07 06:44:43;;;;;;;18.67;13.63;;;;;;;0.99;49.51;100051.03;8411045;28;20236;-65
2023/02/07 06:48:45;;;;;;;20.70;14.77;;;;;;;1.00;49.15;100092.72;8411016;28;20358;-66
2023/02/07 06:52:48;;;;;;;18.13;14.90;;;;;;;1.05;49.71;100092.03;8410348;28;20243;-66
2023/02/07 06:56:53;;;;;;;19.87;13.13;;;;;;;1.14;49.50;100089.75;8411421;28;20239;-66
2023/02/07 07:00:56;;;;;;;19.93;14.23;;;;;;;1.31;48.85;100079.09;8411430;28;20401;-67
2023/02/07 07:04:59;;;;;;;18.67;13.17;;;;;;;1.27;48.82;100085.81;8411668;28;20228;-66
2023/02/07 07:09:02;;;;;;;20.17;14.83;;;;;;;1.26;48.88;100076.44;8410594;28;20423;-66
2023/02/07 07:13:06;;;;;;;18.57;14.27;;;;;;;1.21;48.83;100084.78;8411125;28;20320;-67
2023/02/07 07:17:09;;;;;;;23.37;18.50;;;;;;;1.17;49.16;100096.59;8410867;28;20401;-67
2023/02/07 07:21:11;;;;;;;24.23;20.13;;;;;;;1.11;49.17;100106.66;8410600;28;20224;-67
2023/02/07 07:25:14;;;;;;;17.73;15.20;;;;;;;7.15;66.96;100110.25;8410649;28;20299;-67
2023/02/07 07:29:19;;;;;;;15.27;12.50;;;;;;;7.63;48.04;100082.03;8410577;28;20224;-66
2023/02/07 07:33:21;;;;;;;16.03;14.07;;;;;;;4.22;44.10;100103.97;8410025;28;20220;-66
2023/02/07 07:37:24;;;;;;;19.50;15.47;;;;;;;3.43;45.32;100096.69;8409975;28;20533;-67
2023/02/07 07:41:27;;;;;;;19.63;15.07;;;;;;;2.92;45.56;100089.72;8409359;28;20232;-67
2023/02/07 07:45:31;;;;;;;16.97;14.27;;;;;;;2.65;46.20;100088.31;8410165;28;20236;-67
2023/02/07 07:49:34;;;;;;;19.10;15.13;;;;;;;1.65;47.55;100106.38;8409956;28;20427;-67
2023/02/07 07:53:37;;;;;;;20.97;16.10;;;;;;;1.92;48.42;100107.91;8409704;28;20232;-66
2023/02/07 07:57:40;;;;;;;21.00;15.93;;;;;;;2.11;47.93;100110.09;8410076;28;20339;-66
2023/02/07 08:01:44;;;;;;;19.80;15.70;;;;;;;1.20;49.64;100103.47;8409039;28;20224;-66
2023/02/07 08:05:47;;;;;;;21.33;15.07;;;;;;;1.48;49.36;100099.97;8408640;28;20255;-66
2023/02/07 08:09:50;;;;;;;21.83;15.90;;;;;;;2.30;46.89;100105.41;8409285;28;20235;-66
2023/02/07 08:13:53;;;;;;;19.63;15.27;;;;;;;3.87;43.89;100111.13;8409529;28;20243;-66
2023/02/07 08:17:57;;;;;;;19.57;14.40;;;;;;;4.56;42.36;100101.06;8409650;28;20430;-66
2023/02/07 08:22:00;;;;;;;17.87;13.97;;;;;;;5.03;42.04;100088.84;8409881;28;20236;-67
2023/02/07 08:26:04;;;;;;;18.87;15.00;;;;;;;5.02;40.43;100078.56;8409259;28;20236;-67
2023/02/07 08:30:10;;;;;;;20.87;14.73;;;;;;;5.51;40.45;100094.50;8409822;28;20515;-66
2023/02/07 08:34:14;;;;;;;18.87;14.70;;;;;;;5.33;40.65;100096.88;8409541;28;20224;-68
2023/02/07 08:38:17;;;;;;;19.23;13.60;;;;;;;5.12;40.05;100082.94;8409546;28;20219;-66
2023/02/07 08:42:20;;;;;;;19.13;14.30;;;;;;;6.97;37.79;100089.59;8409765;28;20228;-67
2023/02/07 08:46:23;;;;;;;15.80;13.20;;;;;;;6.62;37.09;100087.69;8409021;28;20232;-66
2023/02/07 08:50:27;;;;;;;17.30;13.80;;;;;;;7.66;35.80;100094.94;8409201;28;20291;-67
2023/02/07 08:54:30;;;;;;;16.80;12.67;;;;;;;7.13;36.20;100090.50;8409111;28;20235;-67
2023/02/07 08:58:33;;;;;;;15.87;12.93;;;;;;;7.57;35.77;100071.72;8408620;28;20312;-67
2023/02/07 09:02:36;;;;;;;16.20;13.10;;;;;;;8.36;34.20;100082.91;8408791;28;20228;-67
2023/02/07 09:06:41;;;;;;;16.83;13.97;;;;;;;6.80;34.52;100080.06;8408593;28;20263;-67
2023/02/07 09:10:44;;;;;;;16.97;12.73;;;;;;;7.79;33.51;99993.50;8408810;28;20266;-67
2023/02/07 09:14:49;;;;;;;17.50;13.70;;;;;;;7.69;34.54;100081.19;8411623;28;20236;-67
2023/02/07 09:18:52;;;;;;;17.40;13.83;;;;;;;8.00;32.62;100082.06;8415870;28;20224;-67
2023/02/07 09:27:16;;;;;;;27.37;24.37;;;;;;;7.52;33.15;99934.19;8415327;28;20430;-67
2023/02/07 09:31:20;;;;;;;21.80;19.23;;;;;;;8.16;33.36;100067.41;8415024;28;20498;-67
2023/02/07 09:35:23;;;;;;;13.23;11.67;;;;;;;9.00;33.30;100067.25;8415073;28;20228;-66
2023/02/07 09:39:27;;;;;;;13.73;11.60;;;;;;;8.82;32.42;100074.22;8414907;28;20231;-66
2023/02/07 09:43:39;;;;;;;16.40;13.60;;;;;;;6.99;33.04;100059.56;8414702;28;20500;-67
2023/02/07 09:47:44;;;;;;;14.50;11.83;;;;;;;9.10;31.07;100062.88;8414044;28;20228;-66
2023/02/07 09:51:47;;;;;;;15.73;12.73;;;;;;;8.02;32.58;100072.59;8414285;28;20244;-67
2023/02/07 09:55:55;;;;;;;15.83;11.70;;;;;;;9.63;30.90;100067.72;8414296;28;20228;-67
2023/02/07 10:00:06;;;;;;;14.73;12.47;;;;;;;8.16;31.75;100059.69;8408569;28;20297;-68
2023/02/07 10:04:26;;;;;;;13.27;11.57;;;;;;;8.25;31.00;99860.91;8422484;28;20519;-67
2023/02/07 10:08:29;;;;;;;16.77;12.47;;;;;;;9.71;29.98;100072.00;8413766;28;20232;-67
2023/02/07 10:12:59;;;;;;;14.13;11.47;;;;;;;9.59;29.67;100065.19;8413462;28;20225;-67
2023/02/07 10:17:18;;;;;;;16.47;11.63;;;;;;;9.65;29.39;100059.09;8414076;28;20599;-68
2023/02/07 10:21:40;;;;;;;13.07;11.07;;;;;;;10.27;28.94;100067.22;8413809;28;20225;-68
2023/02/07 10:25:52;;;;;;;14.93;11.50;;;;;;;9.33;30.18;100055.00;8412804;28;20241;-68
2023/02/07 10:30:01;;;;;;;11.83;10.63;;;;;;;9.45;30.31;100056.66;8414014;28;20229;-66
2023/02/07 10:34:11;;;;;;;14.57;11.17;;;;;;;9.73;29.24;100069.41;8413463;28;20228;-67
2023/02/07 10:38:22;;;;;;;13.33;10.20;;;;;;;9.97;29.07;100030.34;8413204;28;20230;-67
2023/02/07 10:42:25;;;;;;;12.57;10.20;;;;;;;10.09;34.06;100057.88;8412710;28;20225;-68
2023/02/07 10:46:29;;;;;;;11.60;9.37;;;;;;;10.36;28.12;100055.94;8412741;28;20230;-67
2023/02/07 10:50:32;;;;;;;13.00;10.73;;;;;;;9.29;28.03;100048.13;8412572;28;20250;-67
2023/02/07 10:54:50;;;;;;;13.50;9.57;;;;;;;10.07;27.12;100046.69;8412109;28;20216;-67
2023/02/07 10:58:53;;;;;;;12.77;9.93;;;;;;;9.34;27.78;100023.09;8445716;28;20228;-67
2023/02/07 11:03:02;;;;;;;15.13;11.57;;;;;;;10.19;28.80;100040.53;8445697;28;20548;-67
2023/02/07 11:07:07;;;;;;;14.43;11.10;;;;;;;10.02;28.66;100032.06;8445315;28;20240;-67
2023/02/07 11:11:27;;;;;;;15.70;10.70;;;;;;;9.62;28.90;100035.00;8445211;28;20229;-67
2023/02/07 11:15:40;;;;;;;13.53;9.97;;;;;;;9.53;27.94;100030.72;8445201;28;20230;-68
2023/02/07 11:19:45;;;;;;;10.63;9.10;;;;;;;8.85;27.50;100004.41;8411012;28;20232;-68
2023/02/07 11:23:49;;;;;;;11.73;9.07;;;;;;;8.12;29.14;100011.53;8410982;28;20229;-68
2023/02/07 11:27:53;;;;;;;12.57;10.07;;;;;;;8.29;30.01;99999.44;8411465;28;20241;-67
2023/02/07 11:31:59;;;;;;;15.70;9.90;;;;;;;8.92;29.71;99993.19;8411311;28;20316;-67
2023/02/07 11:36:12;;;;;;;10.87;9.77;;;;;;;8.97;28.46;99992.31;8411000;28;20240;-67
2023/02/07 11:40:24;;;;;;;12.50;10.20;;;;;;;8.88;28.77;99997.50;8410896;28;20244;-67
2023/02/07 11:44:29;;;;;;;11.10;9.40;;;;;;;8.96;29.95;99990.56;8411244;28;20228;-68
2023/02/07 11:48:36;;;;;;;12.03;9.43;;;;;;;8.22;30.00;99982.22;8409583;28;20227;-67
2023/02/07 11:52:50;;;;;;;14.70;9.40;;;;;;;8.47;28.57;99993.38;8410409;28;20291;-67
2023/02/07 11:56:55;;;;;;;12.30;9.33;;;;;;;8.14;28.93;99909.13;8410120;28;20224;-67
2023/02/07 12:00:58;;;;;;;12.70;9.30;;;;;;;8.83;29.61;99995.81;8410455;28;20228;-67
2023/02/07 12:05:17;;;;;;;11.93;9.40;;;;;;;8.53;29.71;99992.50;8410011;28;20438;-67
2023/02/07 12:09:29;;;;;;;13.80;10.47;;;;;;;8.08;30.11;99995.16;8407774;28;20699;-67
2023/02/07 12:13:35;;;;;;;13.00;9.47;;;;;;;8.00;30.18;99997.78;8409889;28;20444;-68
2023/02/07 12:17:41;;;;;;;16.33;9.90;;;;;;;8.36;30.77;99988.22;8410256;28;20228;-68
2023/02/07 12:21:54;;;;;;;13.37;9.60;;;;;;;8.14;30.39;99987.41;8410388;28;20229;-67
2023/02/07 12:26:02;;;;;;;11.33;9.63;;;;;;;8.23;30.78;99996.88;8410376;28;20228;-67
2023/02/07 12:30:12;;;;;;;10.53;9.23;;;;;;;7.56;30.13;99926.47;8411512;28;20276;-67
2023/02/07 12:34:20;;;;;;;12.40;9.53;;;;;;;8.16;30.05;99985.69;8410339;28;20238;-67
2023/02/07 12:38:25;;;;;;;10.83;8.87;;;;;;;8.43;30.59;99993.41;8410201;28;20228;-67
2023/02/07 12:42:35;;;;;;;12.53;9.00;;;;;;;8.70;30.32;99967.47;8410686;28;20228;-67
2023/02/07 12:46:46;;;;;;;12.97;9.00;;;;;;;8.68;30.67;99982.13;8410097;28;20239;-67
2023/02/07 12:51:04;;;;;;;10.37;9.00;;;;;;;8.60;30.51;99973.53;8409115;28;20282;-67
2023/02/07 12:55:19;;;;;;;11.87;8.63;;;;;;;8.16;28.91;99977.09;8410526;28;20532;-68
2023/02/07 12:59:29;;;;;;;10.07;8.13;;;;;;;8.62;28.82;99979.53;8410230;28;20221;-67
2023/02/07 13:03:45;;;;;;;9.50;7.60;;;;;;;8.74;29.34;99981.25;8410094;28;20227;-66
2023/02/07 13:07:55;;;;;;;9.07;8.13;;;;;;;8.84;28.10;99979.47;8443045;28;20224;-67
2023/02/07 13:12:06;;;;;;;12.10;8.70;;;;;;;9.14;28.77;99974.13;8443201;28;20227;-69
2023/02/07 13:16:13;;;;;;;10.67;7.60;;;;;;;8.55;27.55;99967.53;8443017;28;20231;-67
2023/02/07 13:20:24;;;;;;;9.83;7.60;;;;;;;8.83;28.19;99949.31;8442803;28;20230;-67
2023/02/07 13:24:29;;;;;;;9.27;7.33;;;;;;;9.32;27.94;99957.59;8443054;28;20242;-67
2023/02/07 13:28:38;;;;;;;14.37;7.87;;;;;;;9.37;28.04;99958.44;8442899;28;20229;-67
2023/02/07 13:32:43;;;;;;;11.43;8.17;;;;;;;9.63;28.28;99959.09;8409135;28;20220;-68
2023/02/07 13:36:48;;;;;;;14.13;9.57;;;;;;;9.46;27.45;99954.03;8408997;28;20370;-67
2023/02/07 13:40:55;;;;;;;8.23;6.57;;;;;;;10.02;26.37;99933.72;8409308;28;20234;-68
2023/02/07 13:45:03;;;;;;;11.63;7.43;;;;;;;9.74;27.42;99945.19;8409199;28;20228;-68
2023/02/07 13:49:13;;;;;;;6.33;5.67;;;;;;;9.97;25.99;99957.88;8408770;28;20233;-67
2023/02/07 13:53:37;;;;;;;7.57;5.47;;;;;;;10.27;25.89;99960.19;8408739;28;20236;-67
2023/02/07 14:02:05;;;;;;;7.37;5.70;;;;;;;9.65;26.33;99957.34;8411193;28;20226;-65
2023/02/07 14:06:22;;;;;;;5.93;5.20;;;;;;;10.43;25.58;99963.47;8414233;28;20283;-66
2023/02/07 14:10:49;;;;;;;9.77;5.30;;;;;;;10.07;25.50;99952.63;8414649;28;20231;-66
2023/02/07 14:14:52;;;;;;;9.77;6.13;;;;;;;9.85;24.90;99957.16;8427678;28;20227;-66
2023/02/07 14:19:05;;;;;;;7.33;5.80;;;;;;;8.68;25.66;99952.84;8447315;28;20230;-67
2023/02/07 14:23:16;;;;;;;6.67;5.87;;;;;;;9.94;25.69;99942.41;8447286;28;20404;-67
2023/02/07 14:27:30;;;;;;;9.33;5.83;;;;;;;8.78;25.67;99954.53;8446888;28;20235;-67
2023/02/07 14:31:33;;;;;;;8.37;6.03;;;;;;;9.69;25.37;99936.63;8447078;28;20235;-67
2023/02/07 14:35:37;;;;;;;8.30;5.80;;;;;;;8.99;25.72;99943.19;8447010;28;20263;-67
2023/02/07 14:39:42;;;;;;;6.17;5.20;;;;;;;9.14;26.78;99945.69;8446889;28;20254;-67
2023/02/07 14:43:49;;;;;;;6.07;5.40;;;;;;;9.48;25.73;99940.25;8413086;28;20528;-67
2023/02/07 14:48:32;;;;;;;7.30;5.00;;;;;;;9.58;25.80;99933.28;8413230;28;20268;-67
2023/02/07 14:52:38;;;;;;;6.37;5.60;;;;;;;9.71;26.43;99931.41;8413320;28;20253;-66
2023/02/07 14:56:46;;;;;;;6.03;5.30;;;;;;;9.80;26.28;99920.97;8412658;28;20244;-66
2023/02/07 15:00:50;;;;;;;7.53;5.23;;;;;;;8.80;26.68;99796.03;8412966;28;20515;-65
2023/02/07 15:04:53;;;;;;;7.73;4.80;;;;;;;9.75;24.87;99912.41;8412568;28;20324;-66
2023/02/07 15:08:58;;;;;;;5.43;4.47;;;;;;;9.32;24.92;99921.41;8412450;28;20249;-66
2023/02/07 15:13:05;;;;;;;5.67;4.70;;;;;;;9.44;25.90;99925.59;8411809;28;20245;-66
2023/02/07 15:17:08;;;;;;;5.63;4.60;;;;;;;9.25;27.23;99924.91;8412853;28;20230;-66
2023/02/07 15:21:15;;;;;;;7.17;5.13;;;;;;;8.89;26.54;99926.00;8412098;28;20236;-66
2023/02/07 15:25:18;;;;;;;6.90;5.23;;;;;;;8.94;28.25;99932.88;8411882;28;20243;-68
2023/02/07 15:29:24;;;;;;;8.40;5.60;;;;;;;8.77;28.20;99925.22;8412579;28;20235;-67
2023/02/07 15:33:35;;;;;;;5.90;4.93;;;;;;;8.59;27.28;99925.34;8412378;28;20235;-67
2023/02/07 15:37:38;;;;;;;5.57;4.93;;;;;;;8.41;26.86;99927.16;8412350;28;20258;-67
2023/02/07 15:41:41;;;;;;;8.43;6.00;;;;;;;8.11;28.19;99942.69;8412033;28;20246;-67
2023/02/07 15:45:58;;;;;;;17.87;9.03;;;;;;;8.10;28.52;99943.56;8411268;28;20527;-67
2023/02/07 15:50:02;;;;;;;15.57;7.43;;;;;;;7.66;29.07;99944.50;8411660;28;21684;-67
2023/02/07 15:54:05;;;;;;;7.97;5.17;;;;;;;7.81;29.42;99935.03;8411661;28;20224;-67
2023/02/07 15:58:17;;;;;;;16.77;10.40;;;;;;;7.73;29.99;99933.31;8411632;28;20224;-67
2023/02/07 16:02:25;;;;;;;20.53;10.57;;;;;;;7.67;29.20;99948.78;8411046;28;20224;-68
2023/02/07 16:06:29;;;;;;;14.57;9.50;;;;;;;7.07;29.75;99853.47;8410656;28;20234;-67
2023/02/07 16:10:36;;;;;;;11.27;8.03;;;;;;;7.49;29.78;99950.53;8411159;28;20232;-67
2023/02/07 16:14:40;;;;;;;9.13;6.57;;;;;;;7.50;30.37;99972.88;8411495;28;20251;-68
2023/02/07 16:18:47;;;;;;;10.97;6.50;;;;;;;7.42;31.57;99972.00;8410565;28;20235;-68
2023/02/07 16:22:50;;;;;;;15.23;9.23;;;;;;;7.34;31.86;99977.16;8410545;28;20250;-67
2023/02/07 16:26:53;;;;;;;12.87;6.53;;;;;;;7.38;30.60;99986.59;8409564;28;20232;-66
2023/02/07 16:30:56;;;;;;;16.00;6.53;;;;;;;7.23;32.14;99991.75;8410350;28;20420;-67
2023/02/07 16:35:00;;;;;;;9.07;7.00;;;;;;;7.08;30.92;99968.53;8410243;28;20570;-67
2023/02/07 16:39:03;;;;;;;9.90;6.10;;;;;;;7.14;31.23;99994.28;8410437;28;20299;-67
2023/02/07 16:43:06;;;;;;;11.30;6.60;;;;;;;7.02;32.82;100000.28;8410333;28;20228;-68
2023/02/07 16:47:10;;;;;;;17.07;9.13;;;;;;;6.90;32.75;100002.84;8409970;28;20419;-67
2023/02/07 16:51:14;;;;;;;14.17;8.60;;;;;;;6.89;34.39;100004.53;8409326;28;20279;-67
2023/02/07 16:55:20;;;;;;;14.77;11.83;;;;;;;6.75;35.19;100009.66;8410079;28;20220;-68
2023/02/07 16:59:24;;;;;;;20.87;11.33;;;;;;;6.71;34.20;100012.22;8410067;28;20219;-67
2023/02/07 17:03:27;;;;;;;10.57;8.40;;;;;;;6.51;35.96;100018.16;8410109;28;20228;-67
2023/02/07 17:07:32;;;;;;;13.83;6.20;;;;;;;6.36;33.72;100000.03;8409091;28;20293;-67
2023/02/07 17:11:35;;;;;;;7.10;6.17;;;;;;;6.48;33.98;99999.25;8409510;28;20426;-66
2023/02/07 17:15:39;;;;;;;6.80;5.70;;;;;;;6.45;34.86;99997.50;8409699;28;20231;-66
2023/02/07 17:19:46;;;;;;;7.00;5.93;;;;;;;6.45;34.91;99998.38;8408996;28;20228;-66
2023/02/07 17:23:50;;;;;;;10.73;7.27;;;;;;;6.04;35.96;99950.13;8409691;28;20519;-66
2023/02/07 17:27:53;;;;;;;10.10;8.30;;;;;;;5.96;36.75;100010.06;8409787;28;20228;-67
2023/02/07 17:31:56;;;;;;;13.47;9.07;;;;;;;6.23;36.76;100004.25;8409370;28;20236;-67
2023/02/07 17:35:59;;;;;;;11.80;9.83;;;;;;;6.09;37.15;100003.31;8411753;28;20300;-67
2023/02/07 17:40:03;;;;;;;16.67;13.60;;;;;;;5.95;36.37;100004.06;8415909;28;20243;-66
2023/02/07 17:44:06;;;;;;;24.17;17.77;;;;;;;5.84;36.38;100005.66;8415419;28;20224;-67
2023/02/07 17:48:11;;;;;;;19.47;16.67;;;;;;;5.69;37.36;99983.28;8414993;28;20231;-67
2023/02/07 17:52:13;;;;;;;20.67;16.40;;;;;;;5.58;37.47;100008.91;8414997;28;20414;-67
2023/02/07 17:56:21;;;;;;;21.43;15.53;;;;;;;5.53;37.64;100000.28;8414583;28;20235;-67
2023/02/07 18:00:26;;;;;;;19.93;14.93;;;;;;;5.44;39.29;100015.63;8414347;28;20257;-67
2023/02/07 18:04:29;;;;;;;16.37;13.67;;;;;;;5.48;39.34;100013.13;8414807;28;20232;-67
2023/02/07 18:08:31;;;;;;;16.70;14.23;;;;;;;5.52;39.13;100016.56;8414473;28;20284;-67
2023/02/07 18:12:36;;;;;;;18.67;14.87;;;;;;;5.41;38.76;100018.19;8414238;28;20239;-67
2023/02/07 18:16:39;;;;;;;17.37;14.33;;;;;;;5.32;38.72;100023.22;8414594;28;20229;-67
2023/02/07 18:20:42;;;;;;;18.40;13.20;;;;;;;4.78;39.62;99943.06;8412561;28;20414;-67
2023/02/07 18:24:45;;;;;;;15.63;12.77;;;;;;;5.20;39.99;100014.56;8413701;28;20417;-68
2023/02/07 18:28:49;;;;;;;19.27;12.93;;;;;;;5.21;40.10;100013.69;8413329;28;20277;-67
2023/02/07 18:32:52;;;;;;;14.40;11.17;;;;;;;5.20;40.33;100021.41;8413498;28;20551;-67
2023/02/07 18:36:55;;;;;;;25.90;17.07;;;;;;;5.19;39.51;100017.09;8413389;28;20233;-67
2023/02/07 18:40:58;;;;;;;22.00;15.97;;;;;;;4.98;39.02;100021.16;8413259;28;20396;-67
2023/02/07 18:45:02;;;;;;;15.80;9.30;;;;;;;5.98;73.42;99995.53;8412785;28;20741;-68
2023/02/07 18:49:06;;;;;;;14.50;10.83;;;;;;;9.41;52.48;100031.69;8411916;28;20228;-68
2023/02/07 18:53:08;;;;;;;11.10;9.90;;;;;;;9.82;36.87;100012.38;8412855;28;20248;-67
2023/02/07 18:57:12;;;;;;;15.73;12.20;;;;;;;6.48;37.46;99976.94;8413023;28;20416;-68
2023/02/07 19:01:18;;;;;;;12.57;9.63;;;;;;;6.20;38.48;100023.09;8412287;28;20528;-67
2023/02/07 19:05:22;;;;;;;11.57;8.87;;;;;;;5.81;38.83;100027.09;8412107;28;20448;-67
2023/02/07 19:09:25;;;;;;;9.33;8.33;;;;;;;5.56;39.51;100014.88;8411908;28;20574;-66
2023/02/07 19:13:29;;;;;;;10.33;7.90;;;;;;;5.40;39.79;100031.88;8411771;28;20231;-67
2023/02/07 19:17:35;;;;;;;9.70;7.47;;;;;;;5.16;40.77;100028.22;8411839;28;20284;-65